sensor_id;sensor_type;location;lat;lon;timestamp;temperature;humidity
26954;DHT22;14508;50.924;11.600;2024-03-23T00:53:06;7.60;99.90
26954;DHT22;14508;50.924;11.600;2024-03-23T00:55:33;7.60;99.90
26954;DHT22;14508;50.924;11.600;2024-03-23T00:58:02;7.60;99.90
26954;DHT22;14508;50.924;11.600;2024-03-23T01:00:29;7.50;99.90
26954;DHT22;14508;50.924;11.600;2024-03-23T01:02:55;7.50;99.90
26954;DHT22;14508;50.924;11.600;2024-03-23T01:05:22;7.40;99.90
26954;DHT22;14508;50.924;11.600;2024-03-23T01:07:48;7.40;99.90
26954;DHT22;14508;50.924;11.600;2024-03-23T01:10:16;7.30;99.90
26954;DHT22;14508;50.924;11.600;2024-03-23T01:12:42;7.30;99.90
26954;DHT22;14508;50.924;11.600;2024-03-23T01:15:09;7.20;99.90
26954;DHT22;14508;50.924;11.600;2024-03-23T01:17:35;7.20;99.90
26954;DHT22;14508;50.924;11.600;2024-03-23T01:20:02;7.20;99.90
26954;DHT22;14508;50.924;11.600;2024-03-23T01:22:29;7.20;99.90
26954;DHT22;14508;50.924;11.600;2024-03-23T01:24:56;7.10;99.90
26954;DHT22;14508;50.924;11.600;2024-03-23T01:27:23;7.10;99.90
26954;DHT22;14508;50.924;11.600;2024-03-23T01:29:51;7.10;99.90
26954;DHT22;14508;50.924;11.600;2024-03-23T01:32:18;7.10;99.90
26954;DHT22;14508;50.924;11.600;2024-03-23T01:34:45;7.00;99.90
26954;DHT22;14508;50.924;11.600;2024-03-23T01:37:11;7.00;99.90
26954;DHT22;14508;50.924;11.600;2024-03-23T01:39:40;7.00;99.90
26954;DHT22;14508;50.924;11.600;2024-03-23T01:42:06;7.00;99.90
26954;DHT22;14508;50.924;11.600;2024-03-23T01:44:35;7.10;99.90
26954;DHT22;14508;50.924;11.600;2024-03-23T01:47:01;7.10;99.90
26954;DHT22;14508;50.924;11.600;2024-03-23T01:49:28;7.20;99.90
26954;DHT22;14508;50.924;11.600;2024-03-23T01:51:54;7.30;99.90
26954;DHT22;14508;50.924;11.600;2024-03-23T01:54:21;7.30;99.90
26954;DHT22;14508;50.924;11.600;2024-03-23T01:56:47;7.40;99.90
26954;DHT22;14508;50.924;11.600;2024-03-23T01:59:15;7.50;99.90
26954;DHT22;14508;50.924;11.600;2024-03-23T02:01:42;7.60;99.90
26954;DHT22;14508;50.924;11.600;2024-03-23T02:04:09;7.60;99.90
26954;DHT22;14508;50.924;11.600;2024-03-23T02:06:35;7.70;99.90
26954;DHT22;14508;50.924;11.600;2024-03-23T02:09:02;7.80;99.90
26954;DHT22;14508;50.924;11.600;2024-03-23T02:11:29;7.90;99.90
26954;DHT22;14508;50.924;11.600;2024-03-23T02:13:56;7.90;99.90
26954;DHT22;14508;50.924;11.600;2024-03-23T02:16:22;8.00;99.90
26954;DHT22;14508;50.924;11.600;2024-03-23T02:18:50;8.00;99.90
26954;DHT22;14508;50.924;11.600;2024-03-23T02:21:16;8.00;99.90
26954;DHT22;14508;50.924;11.600;2024-03-23T02:23:44;8.00;99.90
26954;DHT22;14508;50.924;11.600;2024-03-23T02:26:10;7.90;99.90
26954;DHT22;14508;50.924;11.600;2024-03-23T02:28:37;7.90;99.90
26954;DHT22;14508;50.924;11.600;2024-03-23T02:31:03;7.90;99.90
26954;DHT22;14508;50.924;11.600;2024-03-23T02:33:30;7.80;99.90
26954;DHT22;14508;50.924;11.600;2024-03-23T02:35:57;7.70;99.90
26954;DHT22;14508;50.924;11.600;2024-03-23T02:38:24;7.70;99.90
26954;DHT22;14508;50.924;11.600;2024-03-23T02:40:51;7.60;99.90
26954;DHT22;14508;50.924;11.600;2024-03-23T02:43:18;7.50;99.90
26954;DHT22;14508;50.924;11.600;2024-03-23T02:45:44;7.40;99.90
26954;DHT22;14508;50.924;11.600;2024-03-23T02:48:11;7.40;99.90
26954;DHT22;14508;50.924;11.600;2024-03-23T02:50:37;7.30;99.90
26954;DHT22;14508;50.924;11.600;2024-03-23T02:53:04;7.30;99.90
26954;DHT22;14508;50.924;11.600;2024-03-23T02:55:30;7.40;99.90
26954;DHT22;14508;50.924;11.600;2024-03-23T02:57:58;7.40;99.90
26954;DHT22;14508;50.924;11.600;2024-03-23T03:00:27;7.50;99.90
26954;DHT22;14508;50.924;11.600;2024-03-23T03:02:54;7.60;99.90
26954;DHT22;14508;50.924;11.600;2024-03-23T03:05:21;7.70;99.90
26954;DHT22;14508;50.924;11.600;2024-03-23T03:07:48;7.70;99.90
26954;DHT22;14508;50.924;11.600;2024-03-23T03:10:14;7.80;99.90
26954;DHT22;14508;50.924;11.600;2024-03-23T03:12:41;7.90;99.90
26954;DHT22;14508;50.924;11.600;2024-03-23T03:15:09;8.00;99.90
26954;DHT22;14508;50.924;11.600;2024-03-23T03:17:36;8.00;99.90
26954;DHT22;14508;50.924;11.600;2024-03-23T03:20:02;8.00;99.90
26954;DHT22;14508;50.924;11.600;2024-03-23T03:22:30;8.00;99.90
26954;DHT22;14508;50.924;11.600;2024-03-23T03:24:56;8.00;99.90
26954;DHT22;14508;50.924;11.600;2024-03-23T03:27:23;8.00;99.90
26954;DHT22;14508;50.924;11.600;2024-03-23T03:29:49;7.90;99.90
26954;DHT22;14508;50.924;11.600;2024-03-23T03:32:17;7.90;99.90
26954;DHT22;14508;50.924;11.600;2024-03-23T03:34:43;7.90;99.90
26954;DHT22;14508;50.924;11.600;2024-03-23T03:37:10;7.90;99.90
26954;DHT22;14508;50.924;11.600;2024-03-23T03:39:36;8.00;99.90
26954;DHT22;14508;50.924;11.600;2024-03-23T03:42:03;8.00;99.90
26954;DHT22;14508;50.924;11.600;2024-03-23T03:44:32;8.00;99.90
26954;DHT22;14508;50.924;11.600;2024-03-23T03:46:59;8.10;99.90
26954;DHT22;14508;50.924;11.600;2024-03-23T03:49:26;8.10;99.90
26954;DHT22;14508;50.924;11.600;2024-03-23T03:51:53;8.20;99.90
26954;DHT22;14508;50.924;11.600;2024-03-23T03:54:19;8.10;99.90
26954;DHT22;14508;50.924;11.600;2024-03-23T03:56:46;8.20;99.90
26954;DHT22;14508;50.924;11.600;2024-03-23T03:59:12;8.20;99.90
26954;DHT22;14508;50.924;11.600;2024-03-23T04:01:39;8.30;99.90
26954;DHT22;14508;50.924;11.600;2024-03-23T04:04:05;8.30;99.90
26954;DHT22;14508;50.924;11.600;2024-03-23T04:06:33;8.40;99.90
26954;DHT22;14508;50.924;11.600;2024-03-23T04:08:59;8.40;99.90
26954;DHT22;14508;50.924;11.600;2024-03-23T04:11:26;8.40;99.90
26954;DHT22;14508;50.924;11.600;2024-03-23T04:13:52;8.40;99.90
26954;DHT22;14508;50.924;11.600;2024-03-23T04:16:26;8.40;99.90
26954;DHT22;14508;50.924;11.600;2024-03-23T04:18:52;8.30;99.90
26954;DHT22;14508;50.924;11.600;2024-03-23T04:21:19;8.30;99.90
26954;DHT22;14508;50.924;11.600;2024-03-23T04:23:47;8.30;99.90
26954;DHT22;14508;50.924;11.600;2024-03-23T04:26:14;8.30;99.90
26954;DHT22;14508;50.924;11.600;2024-03-23T04:28:40;8.30;99.90
26954;DHT22;14508;50.924;11.600;2024-03-23T04:31:08;8.30;99.90
26954;DHT22;14508;50.924;11.600;2024-03-23T04:33:34;8.30;99.90
26954;DHT22;14508;50.924;11.600;2024-03-23T04:36:01;8.30;99.90
26954;DHT22;14508;50.924;11.600;2024-03-23T04:38:28;8.30;99.90
26954;DHT22;14508;50.924;11.600;2024-03-23T04:40:57;8.30;99.90
26954;DHT22;14508;50.924;11.600;2024-03-23T04:43:25;8.30;99.90
26954;DHT22;14508;50.924;11.600;2024-03-23T04:45:52;8.30;99.90
26954;DHT22;14508;50.924;11.600;2024-03-23T04:48:20;8.30;99.90
26954;DHT22;14508;50.924;11.600;2024-03-23T04:50:48;8.20;99.90
26954;DHT22;14508;50.924;11.600;2024-03-23T04:53:15;8.20;99.90
26954;DHT22;14508;50.924;11.600;2024-03-23T04:55:43;8.20;99.90
26954;DHT22;14508;50.924;11.600;2024-03-23T04:58:11;8.20;99.90
26954;DHT22;14508;50.924;11.600;2024-03-23T05:00:37;8.30;99.90
26954;DHT22;14508;50.924;11.600;2024-03-23T05:03:04;8.30;99.90
26954;DHT22;14508;50.924;11.600;2024-03-23T05:05:30;8.30;99.90
26954;DHT22;14508;50.924;11.600;2024-03-23T05:07:57;8.40;99.90
26954;DHT22;14508;50.924;11.600;2024-03-23T05:10:23;8.40;99.90
26954;DHT22;14508;50.924;11.600;2024-03-23T05:12:50;8.40;99.90
26954;DHT22;14508;50.924;11.600;2024-03-23T05:15:18;8.40;99.90
26954;DHT22;14508;50.924;11.600;2024-03-23T05:17:44;8.40;99.90
26954;DHT22;14508;50.924;11.600;2024-03-23T05:20:11;8.40;99.90
26954;DHT22;14508;50.924;11.600;2024-03-23T05:22:38;8.30;99.90
26954;DHT22;14508;50.924;11.600;2024-03-23T05:25:05;8.40;99.90
26954;DHT22;14508;50.924;11.600;2024-03-23T05:27:32;8.40;99.90
26954;DHT22;14508;50.924;11.600;2024-03-23T05:29:59;8.40;99.90
26954;DHT22;14508;50.924;11.600;2024-03-23T05:32:26;8.50;99.90
26954;DHT22;14508;50.924;11.600;2024-03-23T05:34:54;8.60;99.90
26954;DHT22;14508;50.924;11.600;2024-03-23T05:37:22;8.60;99.90
26954;DHT22;14508;50.924;11.600;2024-03-23T05:39:49;8.60;99.90
26954;DHT22;14508;50.924;11.600;2024-03-23T05:42:16;8.50;99.90
26954;DHT22;14508;50.924;11.600;2024-03-23T05:44:43;8.50;99.90
26954;DHT22;14508;50.924;11.600;2024-03-23T05:47:10;8.50;99.90
26954;DHT22;14508;50.924;11.600;2024-03-23T05:49:40;8.50;99.90
26954;DHT22;14508;50.924;11.600;2024-03-23T05:52:07;8.50;99.90
26954;DHT22;14508;50.924;11.600;2024-03-23T05:54:35;8.60;99.90
26954;DHT22;14508;50.924;11.600;2024-03-23T05:57:01;8.60;99.90
26954;DHT22;14508;50.924;11.600;2024-03-23T05:59:28;8.50;99.90
26954;DHT22;14508;50.924;11.600;2024-03-23T06:01:54;8.60;99.90
26954;DHT22;14508;50.924;11.600;2024-03-23T06:04:21;8.60;99.90
26954;DHT22;14508;50.924;11.600;2024-03-23T06:06:48;8.60;99.90
26954;DHT22;14508;50.924;11.600;2024-03-23T06:09:15;8.60;99.90
26954;DHT22;14508;50.924;11.600;2024-03-23T06:11:41;8.50;99.90
26954;DHT22;14508;50.924;11.600;2024-03-23T06:14:08;8.60;99.90
26954;DHT22;14508;50.924;11.600;2024-03-23T06:16:34;8.60;99.90
26954;DHT22;14508;50.924;11.600;2024-03-23T06:19:01;8.60;99.90
26954;DHT22;14508;50.924;11.600;2024-03-23T06:21:29;8.60;99.90
26954;DHT22;14508;50.924;11.600;2024-03-23T06:23:57;8.70;99.90
26954;DHT22;14508;50.924;11.600;2024-03-23T06:26:23;8.70;99.90
26954;DHT22;14508;50.924;11.600;2024-03-23T06:28:50;8.70;99.90
26954;DHT22;14508;50.924;11.600;2024-03-23T06:31:16;8.80;99.90
26954;DHT22;14508;50.924;11.600;2024-03-23T06:33:44;8.90;99.90
26954;DHT22;14508;50.924;11.600;2024-03-23T06:36:10;8.90;99.90
26954;DHT22;14508;50.924;11.600;2024-03-23T06:38:39;9.00;99.90
26954;DHT22;14508;50.924;11.600;2024-03-23T06:41:07;9.00;99.90
26954;DHT22;14508;50.924;11.600;2024-03-23T06:43:34;9.10;99.90
26954;DHT22;14508;50.924;11.600;2024-03-23T06:46:03;9.20;99.90
26954;DHT22;14508;50.924;11.600;2024-03-23T06:48:33;9.20;99.90
26954;DHT22;14508;50.924;11.600;2024-03-23T06:50:59;9.20;99.90
26954;DHT22;14508;50.924;11.600;2024-03-23T06:53:26;9.20;99.90
26954;DHT22;14508;50.924;11.600;2024-03-23T06:55:53;9.20;99.90
26954;DHT22;14508;50.924;11.600;2024-03-23T06:58:24;9.30;99.90
26954;DHT22;14508;50.924;11.600;2024-03-23T07:00:50;9.40;99.90
26954;DHT22;14508;50.924;11.600;2024-03-23T07:03:17;9.60;99.90
26954;DHT22;14508;50.924;11.600;2024-03-23T07:05:44;9.80;99.90
26954;DHT22;14508;50.924;11.600;2024-03-23T07:08:11;9.80;99.90
26954;DHT22;14508;50.924;11.600;2024-03-23T07:10:39;9.80;99.90
26954;DHT22;14508;50.924;11.600;2024-03-23T07:13:06;9.70;99.90
26954;DHT22;14508;50.924;11.600;2024-03-23T07:15:33;9.60;99.90
26954;DHT22;14508;50.924;11.600;2024-03-23T07:18:00;9.40;99.90
26954;DHT22;14508;50.924;11.600;2024-03-23T07:20:26;9.30;99.90
26954;DHT22;14508;50.924;11.600;2024-03-23T07:22:56;9.20;99.90
26954;DHT22;14508;50.924;11.600;2024-03-23T07:25:22;9.10;99.90
26954;DHT22;14508;50.924;11.600;2024-03-23T07:27:52;9.00;99.90
26954;DHT22;14508;50.924;11.600;2024-03-23T07:30:18;8.80;99.90
26954;DHT22;14508;50.924;11.600;2024-03-23T07:32:46;8.70;99.90
26954;DHT22;14508;50.924;11.600;2024-03-23T07:35:13;8.70;99.90
26954;DHT22;14508;50.924;11.600;2024-03-23T07:37:41;8.70;99.90
26954;DHT22;14508;50.924;11.600;2024-03-23T07:40:08;8.50;99.90
26954;DHT22;14508;50.924;11.600;2024-03-23T07:42:35;8.40;99.90
26954;DHT22;14508;50.924;11.600;2024-03-23T07:45:01;8.20;99.90
26954;DHT22;14508;50.924;11.600;2024-03-23T07:47:28;8.10;99.90
26954;DHT22;14508;50.924;11.600;2024-03-23T07:49:56;8.00;99.90
26954;DHT22;14508;50.924;11.600;2024-03-23T07:52:22;7.80;99.90
26954;DHT22;14508;50.924;11.600;2024-03-23T07:54:48;7.70;99.90
26954;DHT22;14508;50.924;11.600;2024-03-23T07:57:15;7.60;99.90
26954;DHT22;14508;50.924;11.600;2024-03-23T07:59:41;7.50;99.90
26954;DHT22;14508;50.924;11.600;2024-03-23T08:02:08;7.30;99.90
26954;DHT22;14508;50.924;11.600;2024-03-23T08:04:34;7.30;99.90
26954;DHT22;14508;50.924;11.600;2024-03-23T08:07:02;7.20;99.90
26954;DHT22;14508;50.924;11.600;2024-03-23T08:09:29;7.00;99.90
26954;DHT22;14508;50.924;11.600;2024-03-23T08:11:56;6.80;99.90
26954;DHT22;14508;50.924;11.600;2024-03-23T08:14:22;6.70;99.90
26954;DHT22;14508;50.924;11.600;2024-03-23T08:16:49;6.60;99.90
26954;DHT22;14508;50.924;11.600;2024-03-23T08:19:16;6.50;99.90
26954;DHT22;14508;50.924;11.600;2024-03-23T08:21:42;6.50;99.90
26954;DHT22;14508;50.924;11.600;2024-03-23T08:24:11;6.50;99.90
26954;DHT22;14508;50.924;11.600;2024-03-23T08:26:37;6.50;99.90
26954;DHT22;14508;50.924;11.600;2024-03-23T08:29:04;6.60;99.90
26954;DHT22;14508;50.924;11.600;2024-03-23T08:31:30;6.70;99.90
26954;DHT22;14508;50.924;11.600;2024-03-23T08:33:57;6.70;99.90
26954;DHT22;14508;50.924;11.600;2024-03-23T08:36:24;6.80;99.90
26954;DHT22;14508;50.924;11.600;2024-03-23T08:38:50;7.10;99.90
26954;DHT22;14508;50.924;11.600;2024-03-23T08:41:20;7.30;99.90
26954;DHT22;14508;50.924;11.600;2024-03-23T08:43:46;7.30;99.90
26954;DHT22;14508;50.924;11.600;2024-03-23T08:46:14;7.10;99.90
26954;DHT22;14508;50.924;11.600;2024-03-23T08:48:42;7.10;99.90
26954;DHT22;14508;50.924;11.600;2024-03-23T08:51:11;7.10;99.90
26954;DHT22;14508;50.924;11.600;2024-03-23T08:53:37;7.10;99.90
26954;DHT22;14508;50.924;11.600;2024-03-23T08:56:05;7.00;99.90
26954;DHT22;14508;50.924;11.600;2024-03-23T08:58:35;6.80;99.90
26954;DHT22;14508;50.924;11.600;2024-03-23T09:01:06;6.70;99.90
26954;DHT22;14508;50.924;11.600;2024-03-23T09:03:33;6.60;99.90
26954;DHT22;14508;50.924;11.600;2024-03-23T09:05:59;6.50;99.90
26954;DHT22;14508;50.924;11.600;2024-03-23T09:08:27;6.50;99.90
26954;DHT22;14508;50.924;11.600;2024-03-23T09:10:53;6.50;99.90
26954;DHT22;14508;50.924;11.600;2024-03-23T09:13:20;6.50;99.90
26954;DHT22;14508;50.924;11.600;2024-03-23T09:15:48;6.60;99.90
26954;DHT22;14508;50.924;11.600;2024-03-23T09:18:15;6.70;99.90
26954;DHT22;14508;50.924;11.600;2024-03-23T09:20:42;6.60;99.90
26954;DHT22;14508;50.924;11.600;2024-03-23T09:23:08;6.40;99.90
26954;DHT22;14508;50.924;11.600;2024-03-23T09:25:36;6.30;99.90
26954;DHT22;14508;50.924;11.600;2024-03-23T09:28:04;6.20;99.90
26954;DHT22;14508;50.924;11.600;2024-03-23T09:30:31;6.00;99.90
26954;DHT22;14508;50.924;11.600;2024-03-23T09:33:00;5.90;99.90
26954;DHT22;14508;50.924;11.600;2024-03-23T09:35:26;5.90;99.90
26954;DHT22;14508;50.924;11.600;2024-03-23T09:37:53;5.90;99.90
26954;DHT22;14508;50.924;11.600;2024-03-23T09:40:20;6.00;99.90
26954;DHT22;14508;50.924;11.600;2024-03-23T09:42:50;6.10;99.90
26954;DHT22;14508;50.924;11.600;2024-03-23T09:45:20;6.10;99.90
26954;DHT22;14508;50.924;11.600;2024-03-23T09:47:48;6.10;99.90
26954;DHT22;14508;50.924;11.600;2024-03-23T09:50:17;6.20;99.90
26954;DHT22;14508;50.924;11.600;2024-03-23T09:52:46;6.20;99.90
26954;DHT22;14508;50.924;11.600;2024-03-23T09:55:12;6.30;99.90
26954;DHT22;14508;50.924;11.600;2024-03-23T09:57:39;6.50;99.90
26954;DHT22;14508;50.924;11.600;2024-03-23T10:00:06;6.60;99.90
26954;DHT22;14508;50.924;11.600;2024-03-23T10:02:34;6.80;99.90
26954;DHT22;14508;50.924;11.600;2024-03-23T10:05:00;6.90;99.90
26954;DHT22;14508;50.924;11.600;2024-03-23T10:07:29;6.90;99.90
26954;DHT22;14508;50.924;11.600;2024-03-23T10:09:55;6.80;99.90
26954;DHT22;14508;50.924;11.600;2024-03-23T10:12:23;6.80;99.90
26954;DHT22;14508;50.924;11.600;2024-03-23T10:14:50;6.80;99.90
26954;DHT22;14508;50.924;11.600;2024-03-23T10:17:18;6.70;99.90
26954;DHT22;14508;50.924;11.600;2024-03-23T10:19:44;6.80;99.90
26954;DHT22;14508;50.924;11.600;2024-03-23T10:22:14;6.70;99.90
26954;DHT22;14508;50.924;11.600;2024-03-23T10:24:42;6.70;99.90
26954;DHT22;14508;50.924;11.600;2024-03-23T10:27:09;6.80;99.90
26954;DHT22;14508;50.924;11.600;2024-03-23T10:29:35;6.80;99.90
26954;DHT22;14508;50.924;11.600;2024-03-23T10:32:09;6.80;99.90
26954;DHT22;14508;50.924;11.600;2024-03-23T10:34:36;7.00;99.90
26954;DHT22;14508;50.924;11.600;2024-03-23T10:37:03;7.00;99.90
26954;DHT22;14508;50.924;11.600;2024-03-23T10:39:31;7.10;99.90
26954;DHT22;14508;50.924;11.600;2024-03-23T10:42:02;7.20;99.90
26954;DHT22;14508;50.924;11.600;2024-03-23T10:44:29;7.20;99.90
26954;DHT22;14508;50.924;11.600;2024-03-23T10:46:57;7.20;99.90
26954;DHT22;14508;50.924;11.600;2024-03-23T10:49:29;7.00;99.90
26954;DHT22;14508;50.924;11.600;2024-03-23T10:51:58;7.00;99.90
26954;DHT22;14508;50.924;11.600;2024-03-23T11:01:55;7.60;99.90
26954;DHT22;14508;50.924;11.600;2024-03-23T11:04:33;7.70;99.90
26954;DHT22;14508;50.924;11.600;2024-03-23T11:06:59;8.00;99.90
26954;DHT22;14508;50.924;11.600;2024-03-23T11:09:39;8.20;99.90
26954;DHT22;14508;50.924;11.600;2024-03-23T11:12:18;8.20;99.90
26954;DHT22;14508;50.924;11.600;2024-03-23T11:14:52;8.40;99.90
26954;DHT22;14508;50.924;11.600;2024-03-23T11:17:21;8.60;99.90
26954;DHT22;14508;50.924;11.600;2024-03-23T11:19:56;8.80;99.90
26954;DHT22;14508;50.924;11.600;2024-03-23T11:22:39;9.10;99.90
26954;DHT22;14508;50.924;11.600;2024-03-23T11:25:16;9.20;99.90
26954;DHT22;14508;50.924;11.600;2024-03-23T11:27:43;9.20;99.90
26954;DHT22;14508;50.924;11.600;2024-03-23T11:30:18;9.30;99.90
26954;DHT22;14508;50.924;11.600;2024-03-23T11:32:46;9.40;99.90
26954;DHT22;14508;50.924;11.600;2024-03-23T11:35:30;9.60;99.90
26954;DHT22;14508;50.924;11.600;2024-03-23T11:38:07;9.80;99.90
26954;DHT22;14508;50.924;11.600;2024-03-23T11:40:36;9.80;99.90
26954;DHT22;14508;50.924;11.600;2024-03-23T11:43:03;9.90;97.70
26954;DHT22;14508;50.924;11.600;2024-03-23T11:45:34;10.00;96.20
26954;DHT22;14508;50.924;11.600;2024-03-23T11:48:09;10.00;96.00
26954;DHT22;14508;50.924;11.600;2024-03-23T11:50:38;9.80;94.70
26954;DHT22;14508;50.924;11.600;2024-03-23T11:53:13;9.60;94.80
26954;DHT22;14508;50.924;11.600;2024-03-23T11:55:42;9.50;96.10
26954;DHT22;14508;50.924;11.600;2024-03-23T11:58:08;9.30;98.20
26954;DHT22;14508;50.924;11.600;2024-03-23T12:00:35;9.20;99.90
26954;DHT22;14508;50.924;11.600;2024-03-23T12:03:02;9.10;99.90
26954;DHT22;14508;50.924;11.600;2024-03-23T12:05:30;9.00;99.90
26954;DHT22;14508;50.924;11.600;2024-03-23T12:08:21;9.10;99.90
26954;DHT22;14508;50.924;11.600;2024-03-23T12:10:49;9.20;99.90
26954;DHT22;14508;50.924;11.600;2024-03-23T12:13:17;9.30;99.90
26954;DHT22;14508;50.924;11.600;2024-03-23T12:15:45;9.40;99.60
26954;DHT22;14508;50.924;11.600;2024-03-23T12:18:11;9.30;99.50
26954;DHT22;14508;50.924;11.600;2024-03-23T12:20:40;9.30;96.50
26954;DHT22;14508;50.924;11.600;2024-03-23T12:23:11;9.20;97.20
26954;DHT22;14508;50.924;11.600;2024-03-23T12:25:41;9.20;96.40
26954;DHT22;14508;50.924;11.600;2024-03-23T12:28:07;9.20;96.30
26954;DHT22;14508;50.924;11.600;2024-03-23T12:30:35;9.20;96.60
26954;DHT22;14508;50.924;11.600;2024-03-23T12:33:02;9.40;96.80
26954;DHT22;14508;50.924;11.600;2024-03-23T12:35:29;9.60;96.40
26954;DHT22;14508;50.924;11.600;2024-03-23T12:37:57;9.90;95.50
26954;DHT22;14508;50.924;11.600;2024-03-23T12:40:24;10.20;93.00
26954;DHT22;14508;50.924;11.600;2024-03-23T12:42:50;10.20;92.50
26954;DHT22;14508;50.924;11.600;2024-03-23T12:45:17;10.20;92.00
26954;DHT22;14508;50.924;11.600;2024-03-23T12:47:43;10.20;90.60
26954;DHT22;14508;50.924;11.600;2024-03-23T12:50:10;10.30;88.40
26954;DHT22;14508;50.924;11.600;2024-03-23T12:52:37;10.40;88.50
26954;DHT22;14508;50.924;11.600;2024-03-23T12:55:05;10.40;89.70
26954;DHT22;14508;50.924;11.600;2024-03-23T12:57:32;10.50;84.00
26954;DHT22;14508;50.924;11.600;2024-03-23T12:59:59;10.60;83.40
26954;DHT22;14508;50.924;11.600;2024-03-23T13:02:26;10.60;83.10
26954;DHT22;14508;50.924;11.600;2024-03-23T13:04:53;10.60;82.20
26954;DHT22;14508;50.924;11.600;2024-03-23T13:07:20;10.60;81.80
26954;DHT22;14508;50.924;11.600;2024-03-23T13:09:50;10.60;83.20
26954;DHT22;14508;50.924;11.600;2024-03-23T13:12:17;10.80;79.80
26954;DHT22;14508;50.924;11.600;2024-03-23T13:14:45;10.90;77.30
26954;DHT22;14508;50.924;11.600;2024-03-23T13:17:11;11.00;77.30
26954;DHT22;14508;50.924;11.600;2024-03-23T13:19:38;10.90;73.20
26954;DHT22;14508;50.924;11.600;2024-03-23T13:22:05;10.80;75.80
26954;DHT22;14508;50.924;11.600;2024-03-23T13:24:32;10.90;76.30
26954;DHT22;14508;50.924;11.600;2024-03-23T13:26:58;10.80;74.30
26954;DHT22;14508;50.924;11.600;2024-03-23T13:29:26;10.80;75.60
26954;DHT22;14508;50.924;11.600;2024-03-23T13:31:52;10.90;75.30
26954;DHT22;14508;50.924;11.600;2024-03-23T13:34:20;10.90;71.30
26954;DHT22;14508;50.924;11.600;2024-03-23T13:36:47;11.00;70.90
26954;DHT22;14508;50.924;11.600;2024-03-23T13:39:14;10.90;68.30
26954;DHT22;14508;50.924;11.600;2024-03-23T13:41:42;11.00;68.50
26954;DHT22;14508;50.924;11.600;2024-03-23T13:44:09;11.00;67.70
26954;DHT22;14508;50.924;11.600;2024-03-23T13:46:38;10.90;66.70
26954;DHT22;14508;50.924;11.600;2024-03-23T13:49:04;10.70;65.70
26954;DHT22;14508;50.924;11.600;2024-03-23T13:51:31;10.60;66.10
26954;DHT22;14508;50.924;11.600;2024-03-23T13:53:57;10.50;67.80
26954;DHT22;14508;50.924;11.600;2024-03-23T13:56:26;10.60;66.40
26954;DHT22;14508;50.924;11.600;2024-03-23T13:58:55;10.70;66.10
26954;DHT22;14508;50.924;11.600;2024-03-23T14:01:21;10.90;63.80
26954;DHT22;14508;50.924;11.600;2024-03-23T14:03:50;11.00;63.80
26954;DHT22;14508;50.924;11.600;2024-03-23T14:06:16;11.00;62.00
26954;DHT22;14508;50.924;11.600;2024-03-23T14:08:42;11.00;62.40
26954;DHT22;14508;50.924;11.600;2024-03-23T14:11:09;11.00;62.10
26954;DHT22;14508;50.924;11.600;2024-03-23T14:13:36;10.90;59.80
26954;DHT22;14508;50.924;11.600;2024-03-23T14:16:02;10.90;60.30
26954;DHT22;14508;50.924;11.600;2024-03-23T14:18:30;10.90;60.20
26954;DHT22;14508;50.924;11.600;2024-03-23T14:20:58;11.00;59.80
26954;DHT22;14508;50.924;11.600;2024-03-23T14:23:26;11.10;59.80
26954;DHT22;14508;50.924;11.600;2024-03-23T14:25:55;11.10;59.60
26954;DHT22;14508;50.924;11.600;2024-03-23T14:28:22;11.00;59.40
26954;DHT22;14508;50.924;11.600;2024-03-23T14:30:48;11.00;59.10
26954;DHT22;14508;50.924;11.600;2024-03-23T14:33:16;10.80;59.30
26954;DHT22;14508;50.924;11.600;2024-03-23T14:35:42;10.70;59.40
26954;DHT22;14508;50.924;11.600;2024-03-23T14:38:10;10.50;65.00
26954;DHT22;14508;50.924;11.600;2024-03-23T14:40:36;10.00;74.60
26954;DHT22;14508;50.924;11.600;2024-03-23T14:43:04;9.40;75.80
26954;DHT22;14508;50.924;11.600;2024-03-23T14:45:30;8.90;82.10
26954;DHT22;14508;50.924;11.600;2024-03-23T14:47:57;8.10;99.90
26954;DHT22;14508;50.924;11.600;2024-03-23T14:50:23;7.20;99.90
26954;DHT22;14508;50.924;11.600;2024-03-23T14:52:50;6.50;99.90
26954;DHT22;14508;50.924;11.600;2024-03-23T14:55:18;6.10;99.90
26954;DHT22;14508;50.924;11.600;2024-03-23T14:57:46;5.70;99.90
26954;DHT22;14508;50.924;11.600;2024-03-23T15:00:12;5.70;99.90
26954;DHT22;14508;50.924;11.600;2024-03-23T15:02:39;5.70;99.90
26954;DHT22;14508;50.924;11.600;2024-03-23T15:05:06;5.90;99.90
26954;DHT22;14508;50.924;11.600;2024-03-23T15:07:35;6.10;99.90
26954;DHT22;14508;50.924;11.600;2024-03-23T15:10:01;6.30;99.90
26954;DHT22;14508;50.924;11.600;2024-03-23T15:12:31;6.30;99.90
26954;DHT22;14508;50.924;11.600;2024-03-23T15:14:58;6.30;99.90
26954;DHT22;14508;50.924;11.600;2024-03-23T15:17:25;6.30;99.90
26954;DHT22;14508;50.924;11.600;2024-03-23T15:19:51;6.30;99.90
26954;DHT22;14508;50.924;11.600;2024-03-23T15:22:19;6.20;99.90
26954;DHT22;14508;50.924;11.600;2024-03-23T15:24:45;6.20;99.90
26954;DHT22;14508;50.924;11.600;2024-03-23T15:27:12;6.20;99.90
26954;DHT22;14508;50.924;11.600;2024-03-23T15:29:39;6.20;99.90
26954;DHT22;14508;50.924;11.600;2024-03-23T15:32:08;6.20;99.90
26954;DHT22;14508;50.924;11.600;2024-03-23T15:34:33;6.20;99.90
26954;DHT22;14508;50.924;11.600;2024-03-23T15:37:00;6.30;99.90
26954;DHT22;14508;50.924;11.600;2024-03-23T15:39:26;6.30;99.90
26954;DHT22;14508;50.924;11.600;2024-03-23T15:41:54;6.40;99.90
26954;DHT22;14508;50.924;11.600;2024-03-23T15:44:20;6.40;99.90
26954;DHT22;14508;50.924;11.600;2024-03-23T15:46:48;6.40;99.90
26954;DHT22;14508;50.924;11.600;2024-03-23T15:49:14;6.50;99.90
26954;DHT22;14508;50.924;11.600;2024-03-23T15:51:41;6.50;99.90
26954;DHT22;14508;50.924;11.600;2024-03-23T15:54:09;6.60;99.90
26954;DHT22;14508;50.924;11.600;2024-03-23T15:56:36;6.60;99.90
26954;DHT22;14508;50.924;11.600;2024-03-23T15:59:02;6.70;99.90
26954;DHT22;14508;50.924;11.600;2024-03-23T16:01:32;6.90;99.90
26954;DHT22;14508;50.924;11.600;2024-03-23T16:04:01;7.00;99.90
26954;DHT22;14508;50.924;11.600;2024-03-23T16:06:27;7.20;99.90
26954;DHT22;14508;50.924;11.600;2024-03-23T16:08:53;7.30;99.90
26954;DHT22;14508;50.924;11.600;2024-03-23T16:11:20;7.30;99.90
26954;DHT22;14508;50.924;11.600;2024-03-23T16:13:46;7.30;99.90
26954;DHT22;14508;50.924;11.600;2024-03-23T16:16:13;7.40;99.90
26954;DHT22;14508;50.924;11.600;2024-03-23T16:18:39;7.40;99.90
26954;DHT22;14508;50.924;11.600;2024-03-23T16:21:08;7.40;99.90
26954;DHT22;14508;50.924;11.600;2024-03-23T16:23:34;7.40;99.90
26954;DHT22;14508;50.924;11.600;2024-03-23T16:26:03;7.30;99.90
26954;DHT22;14508;50.924;11.600;2024-03-23T16:28:31;7.10;99.90
26954;DHT22;14508;50.924;11.600;2024-03-23T16:30:59;7.00;99.90